Time;durP1;ratioP1;P1;durP2;ratioP2;P2;SDS_P1;SDS_P2;PMS_P1;PMS_P2;Temp;Humidity;BMP_temperature;BMP_pressure;BME280_temperature;BME280_humidity;BME280_pressure;Samples;Min_cycle;Max_cycle;Signal;HPM_P1;HPM_P2
2023/05/19 00:02:10;;;;;;;3.42;1.10;;;8.50;99.90;;;;;;5012628;28;20050;-78
2023/05/19 00:04:36;;;;;;;2.78;0.77;;;8.50;99.90;;;;;;5028606;28;20112;-78
2023/05/19 00:07:02;;;;;;;3.15;0.90;;;8.40;99.90;;;;;;5025715;28;20442;-79
2023/05/19 00:09:28;;;;;;;4.05;0.93;;;8.40;99.90;;;;;;5011924;28;20033;-79
2023/05/19 00:11:55;;;;;;;3.58;1.00;;;8.30;99.90;;;;;;5042997;28;20060;-78
2023/05/19 00:14:21;;;;;;;4.45;1.42;;;8.30;99.90;;;;;;5008133;28;20036;-79
2023/05/19 00:16:47;;;;;;;3.35;1.10;;;8.30;99.90;;;;;;5023747;28;20029;-79
2023/05/19 00:19:13;;;;;;;2.53;1.27;;;8.30;99.90;;;;;;5007301;28;20028;-79
2023/05/19 00:21:39;;;;;;;2.42;0.95;;;8.20;99.90;;;;;;5024968;28;20389;-79
2023/05/19 00:24:05;;;;;;;3.58;1.45;;;8.20;99.90;;;;;;5026971;28;20474;-79
2023/05/19 00:26:31;;;;;;;2.22;0.73;;;8.20;99.90;;;;;;5024100;28;20059;-79
2023/05/19 00:29:03;;;;;;;3.05;0.70;;;8.10;99.90;;;;;;5023736;28;20540;-78
2023/05/19 00:31:30;;;;;;;4.45;1.20;;;8.10;99.90;;;;;;5024878;28;20053;-78
2023/05/19 00:33:56;;;;;;;4.00;0.90;;;8.10;99.90;;;;;;5027856;28;20087;-79
2023/05/19 00:36:21;;;;;;;3.00;0.95;;;8.10;99.90;;;;;;5025715;28;20025;-78
2023/05/19 00:38:49;;;;;;;2.35;1.13;;;8.00;99.90;;;;;;5008414;28;20397;-78
2023/05/19 00:41:15;;;;;;;3.05;1.20;;;8.00;99.90;;;;;;5007287;28;20116;-79
2023/05/19 00:43:41;;;;;;;2.88;0.82;;;7.90;99.90;;;;;;5026847;28;20045;-79
2023/05/19 00:46:07;;;;;;;3.17;0.70;;;7.90;99.90;;;;;;5023482;28;20029;-78
2023/05/19 00:48:33;;;;;;;2.05;0.90;;;7.90;99.90;;;;;;5024905;28;20143;-78
2023/05/19 00:51:03;;;;;;;4.85;1.00;;;7.90;99.90;;;;;;5034621;28;20021;-78
2023/05/19 00:53:29;;;;;;;;;;;7.90;99.90;;;;;;5023493;28;20041;-78
2023/05/19 00:55:55;;;;;;;2.17;0.60;;;7.90;99.90;;;;;;5024669;28;19914;-78
2023/05/19 00:58:22;;;;;;;2.08;0.90;;;8.00;99.90;;;;;;5027716;28;20022;-79
2023/05/19 01:00:49;;;;;;;2.20;0.60;;;7.90;99.90;;;;;;5026743;28;20120;-79
2023/05/19 01:03:19;;;;;;;2.42;0.85;;;7.90;99.90;;;;;;5037884;28;20104;-78
2023/05/19 01:05:46;;;;;;;3.15;0.80;;;7.90;99.90;;;;;;5025703;28;20021;-78
2023/05/19 01:08:12;;;;;;;2.83;0.80;;;7.90;99.90;;;;;;5034117;28;20033;-78
2023/05/19 01:10:38;;;;;;;2.63;0.80;;;7.90;99.90;;;;;;5024077;28;20022;-78
2023/05/19 01:13:04;;;;;;;5.32;1.30;;;7.80;99.90;;;;;;5010026;28;20037;-79
2023/05/19 01:15:36;;;;;;;2.63;0.75;;;7.80;99.90;;;;;;5035676;28;20029;-79
2023/05/19 01:18:18;;;;;;;3.03;1.15;;;7.80;99.90;;;;;;5025358;28;20034;-79
2023/05/19 01:20:49;;;;;;;2.28;0.93;;;7.80;99.90;;;;;;5039068;28;20030;-78
2023/05/19 01:23:39;;;;;;;2.78;0.90;;;7.70;99.90;;;;;;5005317;28;20029;-79
2023/05/19 01:26:24;;;;;;;;;;;7.80;99.90;;;;;;5017259;28;20041;-78
2023/05/19 01:29:13;;;;;;;6.43;1.48;;;7.80;99.90;;;;;;5039559;28;19956;-78
2023/05/19 01:31:41;;;;;;;2.65;0.60;;;7.80;99.90;;;;;;5023202;28;20033;-77
2023/05/19 01:34:10;;;;;;;2.50;0.70;;;7.70;99.90;;;;;;5023294;28;20051;-78
2023/05/19 01:36:37;;;;;;;3.53;0.70;;;7.70;99.90;;;;;;5020707;28;20486;-79
2023/05/19 01:39:03;;;;;;;1.75;0.60;;;7.70;99.90;;;;;;5024719;28;20033;-79
2023/05/19 01:41:31;;;;;;;2.95;0.60;;;7.60;99.90;;;;;;5022666;28;20030;-79
2023/05/19 01:43:57;;;;;;;2.97;0.80;;;7.70;99.90;;;;;;5026493;28;20045;-78
2023/05/19 01:46:24;;;;;;;3.78;1.13;;;7.60;99.90;;;;;;5040334;28;20026;-79
2023/05/19 01:48:51;;;;;;;3.33;0.80;;;7.60;99.90;;;;;;5005336;28;20104;-79
2023/05/19 01:51:16;;;;;;;3.78;1.20;;;7.50;99.90;;;;;;5024525;28;20026;-79
2023/05/19 01:53:42;;;;;;;4.57;1.52;;;7.50;99.90;;;;;;5026583;28;20504;-79
2023/05/19 01:56:08;;;;;;;4.07;1.10;;;7.50;99.90;;;;;;5023242;28;20254;-79
2023/05/19 01:58:51;;;;;;;6.22;1.60;;;7.50;99.90;;;;;;5009573;28;20033;-78
2023/05/19 02:01:50;;;;;;;2.28;0.77;;;7.40;99.90;;;;;;5016856;28;20434;-79
2023/05/19 02:04:48;;;;;;;2.95;0.93;;;7.40;99.90;;;;;;5005791;28;20037;-79
2023/05/19 02:07:32;;;;;;;2.20;0.80;;;7.40;99.90;;;;;;5021745;28;20033;-79
2023/05/19 02:10:33;;;;;;;2.13;0.80;;;7.40;99.90;;;;;;5023720;28;20525;-79
2023/05/19 02:13:03;;;;;;;2.72;0.80;;;7.40;99.90;;;;;;5020814;28;20053;-79
2023/05/19 02:15:37;;;;;;;3.53;1.20;;;7.30;99.90;;;;;;5031386;28;20112;-79
2023/05/19 02:18:04;;;;;;;2.75;0.85;;;7.40;99.90;;;;;;5020259;28;20029;-78
2023/05/19 02:20:30;;;;;;;3.90;0.88;;;7.40;99.90;;;;;;5022118;28;20402;-79
2023/05/19 02:22:56;;;;;;;3.50;0.88;;;7.40;99.90;;;;;;5026665;28;20124;-79
2023/05/19 02:25:23;;;;;;;3.75;1.08;;;7.40;99.90;;;;;;5026094;28;20044;-78
2023/05/19 02:27:50;;;;;;;4.68;1.20;;;7.40;99.90;;;;;;5013840;28;20079;-78
2023/05/19 02:30:16;;;;;;;3.55;1.17;;;7.40;99.90;;;;;;5026639;28;20493;-78
2023/05/19 02:32:45;;;;;;;2.83;0.90;;;7.40;99.90;;;;;;5024565;28;20128;-79
2023/05/19 02:35:11;;;;;;;3.92;0.90;;;7.30;99.90;;;;;;5005437;28;20026;-78
2023/05/19 02:37:38;;;;;;;2.92;0.80;;;7.30;99.90;;;;;;5025705;28;20464;-79
2023/05/19 02:40:05;;;;;;;2.53;0.73;;;7.30;99.90;;;;;;5005322;28;20043;-78
2023/05/19 02:42:30;;;;;;;4.72;1.38;;;7.20;99.90;;;;;;5020062;28;20033;-79
2023/05/19 02:44:56;;;;;;;5.30;1.40;;;7.30;99.90;;;;;;5025307;28;20041;-78
2023/05/19 02:47:22;;;;;;;4.03;1.15;;;7.30;99.90;;;;;;5021924;28;20033;-78
2023/05/19 02:49:48;;;;;;;4.00;1.15;;;7.20;99.90;;;;;;5008849;28;20421;-79
2023/05/19 02:52:14;;;;;;;3.70;0.68;;;7.10;99.90;;;;;;5025500;28;20494;-78
2023/05/19 02:54:40;;;;;;;2.00;0.70;;;7.10;99.90;;;;;;5021457;28;20040;-78
2023/05/19 02:57:06;;;;;;;3.00;1.10;;;7.10;99.90;;;;;;5007556;28;20095;-78
2023/05/19 02:59:31;;;;;;;1.85;0.85;;;7.10;99.90;;;;;;5004532;28;20029;-79
2023/05/19 03:02:01;;;;;;;2.25;0.70;;;7.20;99.90;;;;;;5038275;28;20436;-78
2023/05/19 03:04:28;;;;;;;3.08;0.90;;;7.10;99.90;;;;;;5004976;28;20018;-79
2023/05/19 03:06:53;;;;;;;2.60;0.93;;;7.10;99.90;;;;;;5021903;28;20172;-79
2023/05/19 03:09:19;;;;;;;2.58;0.85;;;7.00;99.90;;;;;;5006227;28;20461;-79
2023/05/19 03:11:45;;;;;;;3.67;1.05;;;7.00;99.90;;;;;;5040515;28;20053;-78
2023/05/19 03:14:12;;;;;;;2.28;1.20;;;7.00;99.90;;;;;;5040588;28;20192;-78
2023/05/19 03:16:40;;;;;;;2.55;0.70;;;7.00;99.90;;;;;;5029009;28;20054;-79
2023/05/19 03:19:07;;;;;;;2.38;1.20;;;6.90;99.90;;;;;;5025982;28;20470;-78
2023/05/19 03:21:33;;;;;;;2.72;0.70;;;6.90;99.90;;;;;;5026997;28;20070;-78
2023/05/19 03:24:00;;;;;;;1.98;0.77;;;6.90;99.90;;;;;;5022386;28;20022;-79
2023/05/19 03:26:28;;;;;;;3.17;1.13;;;7.00;99.90;;;;;;5013247;28;20031;-79
2023/05/19 03:28:54;;;;;;;2.45;1.10;;;6.90;99.90;;;;;;5012991;28;20129;-79
2023/05/19 03:31:20;;;;;;;3.70;1.17;;;6.90;99.90;;;;;;5027101;28;20533;-78
2023/05/19 03:33:46;;;;;;;3.78;1.38;;;6.90;99.90;;;;;;5007405;28;20628;-79
2023/05/19 03:36:11;;;;;;;4.40;1.20;;;6.90;99.90;;;;;;5009810;28;20022;-79
2023/05/19 03:38:38;;;;;;;2.60;0.75;;;6.80;99.90;;;;;;5009362;28;20046;-79
2023/05/19 03:41:04;;;;;;;3.47;1.02;;;6.90;99.90;;;;;;5011875;28;20026;-79
2023/05/19 03:43:30;;;;;;;2.55;1.00;;;6.80;99.90;;;;;;5024174;28;20069;-79
2023/05/19 03:46:01;;;;;;;3.38;0.80;;;6.80;99.90;;;;;;5025380;28;20033;-78
2023/05/19 03:48:45;;;;;;;2.47;0.80;;;6.90;99.90;;;;;;5032310;28;20052;-78
2023/05/19 03:51:28;;;;;;;4.75;1.00;;;6.90;99.90;;;;;;5029103;28;20131;-79
2023/05/19 03:53:57;;;;;;;2.90;0.90;;;6.90;99.90;;;;;;5016791;28;20037;-78
2023/05/19 03:56:25;;;;;;;4.53;0.80;;;6.90;99.90;;;;;;5025040;28;20026;-79
2023/05/19 03:58:51;;;;;;;4.75;1.08;;;6.90;99.90;;;;;;5008231;28;20083;-78
2023/05/19 04:01:16;;;;;;;3.42;0.98;;;6.80;99.90;;;;;;5008065;28;20385;-79
2023/05/19 04:03:43;;;;;;;3.85;1.15;;;6.90;99.90;;;;;;5028363;28;20640;-79
2023/05/19 04:06:09;;;;;;;4.43;1.23;;;6.90;99.90;;;;;;5027531;28;20124;-79
2023/05/19 04:08:35;;;;;;;4.40;1.10;;;7.00;99.90;;;;;;5028467;28;20116;-79
2023/05/19 04:11:01;;;;;;;4.97;1.00;;;7.00;99.90;;;;;;5028429;28;20120;-79
2023/05/19 04:13:28;;;;;;;4.97;0.90;;;7.00;99.90;;;;;;5021912;28;20042;-79
2023/05/19 04:15:53;;;;;;;2.45;0.82;;;7.00;99.90;;;;;;5027968;28;20037;-79
2023/05/19 04:18:19;;;;;;;4.03;1.10;;;7.00;99.90;;;;;;5028165;28;20033;-79
2023/05/19 04:20:45;;;;;;;3.03;1.33;;;7.00;99.90;;;;;;5028932;28;20034;-79
2023/05/19 04:23:11;;;;;;;2.38;0.85;;;7.10;99.90;;;;;;5027551;28;20029;-79
2023/05/19 04:25:37;;;;;;;2.55;1.13;;;7.20;99.90;;;;;;5021379;28;20128;-79
2023/05/19 04:28:03;;;;;;;2.60;0.90;;;7.20;99.90;;;;;;5022301;28;20021;-79
2023/05/19 04:30:29;;;;;;;7.47;1.48;;;7.30;99.90;;;;;;5037963;28;20033;-79
2023/05/19 04:32:56;;;;;;;5.53;0.98;;;7.30;99.90;;;;;;5025742;28;20041;-79
2023/05/19 04:35:23;;;;;;;3.80;0.98;;;7.40;99.90;;;;;;5041768;28;20610;-79
2023/05/19 04:37:53;;;;;;;2.47;1.00;;;7.40;99.90;;;;;;5041168;28;20029;-79
2023/05/19 04:40:22;;;;;;;3.50;1.20;;;7.50;99.90;;;;;;5004353;28;20454;-79
2023/05/19 04:42:51;;;;;;;4.40;0.90;;;7.60;99.90;;;;;;5040025;28;20034;-79
2023/05/19 04:45:16;;;;;;;3.15;1.00;;;7.60;99.90;;;;;;5027812;28;20461;-79
2023/05/19 04:47:47;;;;;;;2.97;1.20;;;7.70;99.90;;;;;;5010325;28;20453;-79
2023/05/19 04:50:15;;;;;;;2.33;0.70;;;7.80;99.90;;;;;;5039353;28;20092;-79
2023/05/19 04:52:41;;;;;;;4.35;1.10;;;8.00;99.90;;;;;;5008289;28;20030;-80
2023/05/19 04:55:10;;;;;;;3.38;1.05;;;8.00;99.90;;;;;;5010027;28;20071;-77
2023/05/19 04:57:36;;;;;;;2.78;0.88;;;8.10;99.90;;;;;;5024762;28;20033;-78
2023/05/19 05:00:06;;;;;;;2.63;0.90;;;8.20;99.90;;;;;;5035765;28;20026;-77
2023/05/19 05:02:36;;;;;;;4.25;0.98;;;8.30;99.90;;;;;;5023230;28;20039;-77
2023/05/19 05:05:03;;;;;;;3.10;1.00;;;8.20;99.90;;;;;;5020999;28;20021;-78
2023/05/19 05:07:29;;;;;;;3.35;1.17;;;8.20;99.90;;;;;;5038401;28;20029;-78
2023/05/19 05:09:54;;;;;;;3.03;1.00;;;8.30;99.90;;;;;;5027050;28;20033;-77
2023/05/19 05:12:20;;;;;;;3.65;1.33;;;8.30;99.90;;;;;;5016518;28;20550;-78
2023/05/19 05:14:47;;;;;;;2.92;1.00;;;8.30;99.90;;;;;;5018431;28;20373;-77
2023/05/19 05:17:13;;;;;;;3.67;1.33;;;8.30;99.90;;;;;;5010085;28;20461;-78
2023/05/19 05:19:41;;;;;;;6.15;1.48;;;8.30;99.90;;;;;;5021757;28;20489;-77
2023/05/19 05:22:06;;;;;;;3.25;1.23;;;8.40;99.90;;;;;;5022813;28;20026;-77
2023/05/19 05:24:35;;;;;;;3.22;1.35;;;8.40;99.90;;;;;;5003697;28;20056;-77
2023/05/19 05:27:03;;;;;;;2.92;0.98;;;8.40;99.90;;;;;;5005164;28;20509;-77
2023/05/19 05:29:29;;;;;;;3.55;1.02;;;8.40;99.90;;;;;;5010585;28;20029;-78
2023/05/19 05:31:55;;;;;;;2.53;1.00;;;8.40;99.90;;;;;;5039061;28;20482;-77
2023/05/19 05:34:21;;;;;;;2.72;0.85;;;8.40;99.90;;;;;;5040168;28;20082;-77
2023/05/19 05:36:47;;;;;;;2.60;1.00;;;8.40;99.90;;;;;;5021023;28;20453;-77
2023/05/19 05:39:13;;;;;;;3.63;1.10;;;8.50;99.90;;;;;;5026194;28;20025;-77
2023/05/19 05:41:40;;;;;;;4.10;0.90;;;8.50;99.90;;;;;;5022974;28;20049;-76
2023/05/19 05:44:10;;;;;;;;;;;8.70;99.90;;;;;;5022135;28;20037;-77
2023/05/19 05:46:38;;;;;;;3.90;0.93;;;8.90;99.90;;;;;;5021102;28;20420;-77
2023/05/19 05:49:04;;;;;;;4.38;1.00;;;9.10;99.90;;;;;;5009653;28;20254;-77
2023/05/19 05:51:31;;;;;;;3.58;1.10;;;9.20;99.90;;;;;;5015748;28;20095;-77
2023/05/19 05:54:00;;;;;;;2.95;1.00;;;9.30;99.90;;;;;;5025040;28;20398;-77
2023/05/19 05:56:33;;;;;;;3.03;0.85;;;9.30;99.90;;;;;;5020730;28;20033;-78
2023/05/19 05:59:00;;;;;;;2.67;0.90;;;9.40;99.90;;;;;;5005912;28;20464;-78
2023/05/19 06:01:26;;;;;;;5.60;1.70;;;9.50;99.90;;;;;;5025194;28;20030;-77
2023/05/19 06:03:52;;;;;;;4.70;1.50;;;9.70;99.90;;;;;;5007156;28;20033;-78
2023/05/19 06:06:21;;;;;;;3.22;1.20;;;9.80;99.90;;;;;;5039884;28;20059;-79
2023/05/19 06:08:47;;;;;;;2.55;0.90;;;10.00;99.90;;;;;;5006304;28;20427;-79
2023/05/19 06:11:13;;;;;;;3.03;1.20;;;10.20;99.90;;;;;;5005292;28;20117;-79
2023/05/19 06:13:40;;;;;;;3.25;1.25;;;10.30;99.90;;;;;;5024537;28;20057;-78
2023/05/19 06:16:08;;;;;;;4.28;1.70;;;10.50;99.90;;;;;;5010238;28;20481;-79
2023/05/19 06:18:43;;;;;;;3.90;1.10;;;10.80;99.90;;;;;;5021620;28;20428;-79
2023/05/19 06:21:12;;;;;;;2.38;1.17;;;11.20;99.90;;;;;;5016319;28;20033;-79
2023/05/19 06:23:39;;;;;;;4.20;1.23;;;11.30;99.90;;;;;;5003944;28;20037;-78
2023/05/19 06:26:07;;;;;;;3.03;0.80;;;11.40;99.90;;;;;;5006247;28;20036;-79
2023/05/19 06:28:33;;;;;;;2.50;0.93;;;11.60;99.90;;;;;;5022884;28;20085;-80
2023/05/19 06:30:59;;;;;;;3.88;1.10;;;11.60;99.90;;;;;;5020643;28;20159;-79
2023/05/19 06:33:41;;;;;;;4.45;0.85;;;11.90;99.90;;;;;;5010962;28;20479;-78
2023/05/19 06:36:08;;;;;;;3.08;0.90;;;12.00;99.90;;;;;;5008282;28;20037;-79
2023/05/19 06:38:35;;;;;;;1.85;0.80;;;12.20;99.90;;;;;;5021396;28;20183;-79
2023/05/19 06:41:00;;;;;;;2.00;0.80;;;12.30;99.90;;;;;;5025804;28;20145;-79
2023/05/19 06:43:27;;;;;;;2.67;0.95;;;12.20;99.90;;;;;;5025755;28;20462;-78
2023/05/19 06:46:00;;;;;;;7.10;1.00;;;12.20;99.90;;;;;;5009362;28;20034;-79
2023/05/19 06:48:27;;;;;;;3.00;0.77;;;12.50;99.90;;;;;;5023101;28;20021;-79
2023/05/19 06:50:53;;;;;;;3.80;0.80;;;12.60;99.90;;;;;;5028976;28;20132;-78
2023/05/19 06:53:22;;;;;;;3.92;1.23;;;12.80;99.90;;;;;;5013459;28;20052;-80
2023/05/19 06:55:49;;;;;;;3.45;0.90;;;13.20;99.90;;;;;;5009640;28;20021;-80
2023/05/19 06:58:18;;;;;;;2.97;0.80;;;13.30;99.90;;;;;;5011509;28;20033;-78
2023/05/19 07:00:43;;;;;;;2.95;0.88;;;13.40;99.90;;;;;;5010597;28;20028;-79
2023/05/19 07:03:12;;;;;;;2.13;0.77;;;13.40;99.90;;;;;;5013472;28;20040;-78
2023/05/19 07:05:37;;;;;;;3.72;1.38;;;13.40;99.90;;;;;;5025221;28;20117;-79
2023/05/19 07:08:04;;;;;;;2.38;1.08;;;13.20;99.90;;;;;;5010175;28;20060;-79
2023/05/19 07:10:30;;;;;;;3.28;0.95;;;13.40;99.90;;;;;;5042077;28;20565;-78
2023/05/19 07:12:57;;;;;;;4.28;0.93;;;13.50;99.90;;;;;;5037146;28;20117;-77
2023/05/19 07:15:25;;;;;;;3.80;0.90;;;13.60;99.90;;;;;;5041951;28;20017;-77
2023/05/19 07:17:51;;;;;;;2.70;0.65;;;13.90;99.90;;;;;;5023455;28;20029;-79
2023/05/19 07:20:16;;;;;;;2.78;0.70;;;14.00;99.90;;;;;;5025851;28;20056;-78
2023/05/19 07:22:42;;;;;;;3.00;0.80;;;14.20;99.90;;;;;;5008891;28;20071;-78
2023/05/19 07:25:08;;;;;;;1.90;0.65;;;14.30;99.90;;;;;;5031721;28;20022;-78
2023/05/19 07:27:34;;;;;;;1.75;0.60;;;14.40;99.90;;;;;;5007941;28;20363;-78
2023/05/19 07:30:00;;;;;;;2.05;0.60;;;14.80;99.90;;;;;;5012767;28;20449;-79
2023/05/19 07:32:26;;;;;;;3.28;0.60;;;15.10;99.90;;;;;;5021126;28;20041;-78
2023/05/19 07:34:51;;;;;;;3.30;0.95;;;15.50;99.90;;;;;;5011942;28;20032;-77
2023/05/19 07:37:17;;;;;;;3.45;0.60;;;15.40;99.90;;;;;;5029510;28;20034;-78
2023/05/19 07:39:43;;;;;;;4.57;0.85;;;15.50;99.90;;;;;;5024077;28;20104;-77
2023/05/19 07:42:09;;;;;;;2.78;0.77;;;15.50;99.90;;;;;;5012583;28;20346;-78
2023/05/19 07:44:35;;;;;;;2.95;0.60;;;15.70;99.90;;;;;;5021413;28;20568;-78
2023/05/19 07:47:00;;;;;;;2.47;0.50;;;15.60;99.90;;;;;;5040706;28;20046;-77
2023/05/19 07:49:26;;;;;;;2.42;0.40;;;15.90;99.90;;;;;;5024581;28;20026;-78
2023/05/19 07:51:53;;;;;;;2.83;0.50;;;16.20;99.90;;;;;;5011194;28;20398;-78
2023/05/19 07:54:19;;;;;;;2.25;0.50;;;16.00;99.90;;;;;;5026337;28;20026;-77
2023/05/19 07:56:45;;;;;;;1.77;0.40;;;16.00;99.90;;;;;;5025421;28;20021;-78
2023/05/19 07:59:10;;;;;;;1.45;0.30;;;16.10;99.90;;;;;;5028704;28;20060;-78
2023/05/19 08:01:36;;;;;;;1.58;0.40;;;16.00;99.90;;;;;;5027050;28;20026;-77
2023/05/19 08:04:02;;;;;;;2.42;0.60;;;15.90;99.90;;;;;;5029476;28;20523;-77
2023/05/19 08:06:28;;;;;;;1.50;0.43;;;16.10;99.90;;;;;;5024678;28;20079;-78
2023/05/19 08:08:54;;;;;;;4.10;1.05;;;16.60;99.90;;;;;;5027684;28;20037;-78
2023/05/19 08:11:20;;;;;;;2.58;0.30;;;16.50;99.90;;;;;;5042347;28;20142;-79
2023/05/19 08:13:47;;;;;;;2.28;0.40;;;17.00;99.90;;;;;;5028905;28;20085;-78
2023/05/19 08:16:16;;;;;;;2.17;0.40;;;17.10;99.90;;;;;;5039101;28;20048;-78
2023/05/19 08:18:42;;;;;;;3.80;0.60;;;17.30;99.90;;;;;;5024012;28;20021;-79
2023/05/19 08:21:08;;;;;;;1.90;0.40;;;17.00;99.90;;;;;;5027861;28;20604;-79
2023/05/19 08:23:33;;;;;;;2.35;0.40;;;17.20;99.90;;;;;;5024825;28;20036;-78
2023/05/19 08:26:00;;;;;;;2.28;0.40;;;17.40;99.90;;;;;;5024842;28;20041;-78
2023/05/19 08:28:26;;;;;;;1.88;0.40;;;17.50;99.90;;;;;;5011438;28;20428;-78
2023/05/19 08:30:52;;;;;;;4.03;0.40;;;17.70;99.90;;;;;;5025232;28;20025;-79
2023/05/19 08:33:19;;;;;;;3.05;0.43;;;17.70;99.90;;;;;;5027840;28;20122;-80
2023/05/19 08:35:45;;;;;;;2.20;0.32;;;17.80;99.90;;;;;;5010989;28;20045;-78
2023/05/19 08:38:11;;;;;;;1.58;0.25;;;18.10;99.90;;;;;;5040630;28;20474;-77
2023/05/19 08:40:39;;;;;;;2.95;0.32;;;18.20;99.90;;;;;;5023466;28;20030;-79
2023/05/19 08:43:05;;;;;;;1.13;0.30;;;18.20;99.90;;;;;;5025394;28;20050;-79
2023/05/19 08:45:33;;;;;;;2.50;0.30;;;18.30;99.90;;;;;;5025793;28;20029;-79
2023/05/19 08:47:59;;;;;;;1.55;0.40;;;18.50;99.90;;;;;;5022320;28;20034;-78
2023/05/19 08:50:29;;;;;;;3.00;0.40;;;18.50;99.90;;;;;;5009451;28;20255;-79
2023/05/19 08:53:06;;;;;;;2.58;0.30;;;18.30;99.90;;;;;;5023833;28;20041;-78
2023/05/19 08:55:41;;;;;;;2.75;0.28;;;18.80;99.90;;;;;;5005560;28;20033;-78
2023/05/19 08:58:07;;;;;;;3.63;0.50;;;18.80;99.90;;;;;;5032252;28;20076;-79
2023/05/19 09:00:33;;;;;;;2.85;0.32;;;18.60;99.90;;;;;;5027071;28;20026;-79
2023/05/19 09:03:00;;;;;;;2.72;0.30;;;18.80;99.90;;;;;;5023966;28;20128;-79
2023/05/19 09:05:25;;;;;;;3.53;0.40;;;18.80;99.90;;;;;;5026204;28;20025;-79
2023/05/19 09:07:51;;;;;;;2.05;0.30;;;18.70;99.90;;;;;;5036831;28;20532;-79
2023/05/19 09:10:17;;;;;;;0.80;0.20;;;19.10;99.90;;;;;;5007242;28;20025;-79
2023/05/19 09:12:46;;;;;;;2.42;0.30;;;19.20;99.90;;;;;;5023325;28;20038;-78
2023/05/19 09:15:12;;;;;;;1.50;0.22;;;19.30;99.90;;;;;;5025456;28;20041;-79
2023/05/19 09:17:38;;;;;;;1.67;0.20;;;19.60;99.90;;;;;;5038990;28;20456;-79
2023/05/19 09:20:11;;;;;;;2.20;0.22;;;19.60;99.90;;;;;;5023941;28;20070;-79
2023/05/19 09:22:46;;;;;;;1.75;0.20;;;19.90;99.90;;;;;;5019447;28;20030;-78
2023/05/19 09:25:25;;;;;;;1.33;0.30;;;20.30;99.90;;;;;;5021065;28;20022;-79
2023/05/19 09:27:53;;;;;;;2.60;0.30;;;19.60;99.90;;;;;;5020597;28;20033;-79
2023/05/19 09:30:19;;;;;;;1.83;0.30;;;18.70;99.90;;;;;;5023334;28;20029;-79
2023/05/19 09:32:45;;;;;;;1.45;0.20;;;19.10;99.90;;;;;;5022603;28;20556;-79
2023/05/19 09:35:12;;;;;;;2.22;0.22;;;19.60;99.90;;;;;;5025858;28;20226;-79
2023/05/19 09:37:40;;;;;;;1.63;0.25;;;19.70;99.90;;;;;;5035362;28;20037;-79
2023/05/19 09:40:08;;;;;;;0.70;0.20;;;19.20;99.90;;;;;;5025106;28;20033;-78
2023/05/19 09:42:37;;;;;;;1.90;0.20;;;19.00;99.90;;;;;;5025940;28;20063;-78
2023/05/19 09:45:03;;;;;;;1.13;0.10;;;19.20;99.90;;;;;;5023690;28;20129;-78
2023/05/19 09:47:37;;;;;;;2.67;0.20;;;19.50;99.90;;;;;;5020809;28;20033;-78
2023/05/19 09:50:08;;;;;;;2.05;0.20;;;19.50;99.90;;;;;;5019664;28;20048;-78
2023/05/19 09:52:37;;;;;;;1.65;0.20;;;19.90;99.90;;;;;;5023130;28;20042;-79
2023/05/19 09:55:05;;;;;;;1.27;0.20;;;19.60;99.90;;;;;;5019932;28;20116;-78
2023/05/19 09:57:37;;;;;;;3.85;0.22;;;19.80;99.90;;;;;;5022155;28;20080;-79
2023/05/19 10:00:14;;;;;;;3.38;0.20;;;19.80;99.90;;;;;;5034404;28;20021;-78
2023/05/19 10:02:41;;;;;;;1.27;0.20;;;19.50;99.90;;;;;;5023103;28;20718;-79
2023/05/19 10:05:18;;;;;;;2.75;0.22;;;19.10;99.90;;;;;;5018213;28;20025;-79
2023/05/19 10:07:47;;;;;;;1.33;0.15;;;19.40;99.90;;;;;;5022934;28;20029;-79
2023/05/19 10:10:14;;;;;;;1.65;0.30;;;19.50;99.90;;;;;;5022878;28;20038;-79
2023/05/19 10:12:40;;;;;;;0.90;0.20;;;19.30;99.90;;;;;;5002404;28;20471;-80
2023/05/19 10:15:13;;;;;;;1.77;0.30;;;19.60;99.90;;;;;;5037164;28;20041;-80
2023/05/19 10:17:41;;;;;;;1.08;0.20;;;19.90;99.90;;;;;;5037462;28;20053;-80
2023/05/19 10:20:12;;;;;;;1.20;0.20;;;20.00;99.90;;;;;;5023487;28;20021;-80
2023/05/19 10:22:39;;;;;;;1.02;0.20;;;19.80;99.90;;;;;;5017426;28;20068;-80
2023/05/19 10:25:05;;;;;;;1.17;0.20;;;19.90;99.90;;;;;;5025725;28;20506;-79
2023/05/19 10:27:33;;;;;;;1.98;0.30;;;20.20;99.90;;;;;;5007201;28;20113;-80
2023/05/19 10:30:06;;;;;;;1.30;0.20;;;20.50;99.90;;;;;;5021788;28;20116;-81
2023/05/19 10:32:32;;;;;;;2.05;0.20;;;20.20;99.90;;;;;;5006483;28;20032;-80
2023/05/19 10:35:17;;;;;;;1.55;0.20;;;20.40;99.90;;;;;;5022449;28;20106;-79
2023/05/19 10:37:45;;;;;;;3.40;0.20;;;20.50;99.90;;;;;;5018851;28;20038;-79
2023/05/19 10:40:19;;;;;;;1.83;0.20;;;20.50;99.60;;;;;;5017230;28;20096;-80
2023/05/19 10:43:12;;;;;;;1.67;0.22;;;20.40;99.90;;;;;;5022596;28;20235;-80
2023/05/19 10:45:50;;;;;;;1.83;0.30;;;20.80;99.90;;;;;;5019808;28;20037;-78
2023/05/19 10:48:18;;;;;;;1.98;0.30;;;20.50;99.90;;;;;;5023103;28;20385;-80
2023/05/19 10:50:45;;;;;;;1.15;0.20;;;20.30;99.90;;;;;;5021000;28;20725;-79
2023/05/19 10:53:19;;;;;;;1.05;0.20;;;20.10;99.90;;;;;;5034547;28;20091;-78
2023/05/19 10:56:01;;;;;;;0.68;0.10;;;20.30;99.90;;;;;;5020525;28;20899;-80
2023/05/19 10:58:39;;;;;;;1.42;0.20;;;20.90;99.90;;;;;;5018348;28;20026;-79
2023/05/19 11:01:15;;;;;;;2.00;0.30;;;20.60;99.90;;;;;;5003823;28;20029;-80
2023/05/19 11:03:52;;;;;;;2.30;0.30;;;20.90;99.90;;;;;;5037548;28;20025;-79
2023/05/19 11:06:35;;;;;;;2.10;0.20;;;20.90;99.30;;;;;;5024536;28;20026;-79
2023/05/19 11:09:22;;;;;;;1.40;0.20;;;21.20;99.80;;;;;;5022016;28;20100;-79
2023/05/19 11:11:49;;;;;;;1.33;0.20;;;20.50;99.40;;;;;;5024994;28;20450;-79
2023/05/19 11:14:36;;;;;;;1.30;0.28;;;20.90;99.90;;;;;;5019666;28;20421;-81
2023/05/19 11:17:02;;;;;;;1.25;0.20;;;21.30;98.90;;;;;;5020800;28;20038;-80
2023/05/19 11:19:29;;;;;;;2.33;0.28;;;21.70;99.30;;;;;;5024602;28;20040;-80
2023/05/19 11:21:56;;;;;;;2.35;0.20;;;21.30;99.90;;;;;;5022766;28;20021;-80
2023/05/19 11:24:43;;;;;;;1.73;0.20;;;21.80;99.10;;;;;;5021857;28;20038;-80
2023/05/19 11:27:29;;;;;;;1.67;0.20;;;20.70;98.70;;;;;;5020418;28;20438;-80
2023/05/19 11:29:59;;;;;;;2.78;0.40;;;20.70;99.60;;;;;;5016950;28;20033;-79
2023/05/19 11:32:28;;;;;;;2.08;0.30;;;20.50;98.50;;;;;;5021400;28;20029;-79
2023/05/19 11:34:55;;;;;;;1.98;0.30;;;20.90;98.60;;;;;;5025972;28;20101;-79
2023/05/19 11:37:21;;;;;;;1.02;0.20;;;21.00;99.00;;;;;;5022788;28;20030;-80
2023/05/19 11:39:47;;;;;;;2.53;0.30;;;21.20;98.50;;;;;;5027778;28;20397;-80
2023/05/19 11:42:12;;;;;;;1.13;0.17;;;20.20;99.00;;;;;;5022119;28;20045;-80
2023/05/19 11:44:40;;;;;;;2.63;0.20;;;20.40;99.20;;;;;;5042145;28;20123;-79
2023/05/19 11:47:07;;;;;;;1.60;0.10;;;20.90;99.30;;;;;;5027292;28;20029;-79
2023/05/19 11:49:33;;;;;;;2.75;0.28;;;21.50;99.00;;;;;;5024765;28;20030;-79
2023/05/19 11:52:03;;;;;;;1.63;0.22;;;21.70;97.90;;;;;;5028711;28;20120;-80
2023/05/19 11:54:38;;;;;;;2.20;0.30;;;21.30;98.30;;;;;;5028854;28;20022;-80
2023/05/19 11:57:04;;;;;;;1.38;0.25;;;21.20;98.20;;;;;;5006817;28;20430;-79
2023/05/19 11:59:31;;;;;;;2.70;0.20;;;21.10;97.70;;;;;;5025686;28;20032;-81
2023/05/19 12:02:20;;;;;;;1.75;0.20;;;21.30;97.60;;;;;;5026562;28;20040;-80
2023/05/19 12:04:50;;;;;;;2.95;0.40;;;21.10;97.80;;;;;;5016496;28;20141;-80
2023/05/19 12:07:17;;;;;;;4.30;0.30;;;20.90;99.50;;;;;;5024614;28;20018;-80
2023/05/19 12:09:45;;;;;;;2.58;0.55;;;21.50;98.20;;;;;;5023237;28;20029;-80
2023/05/19 12:12:13;;;;;;;1.33;0.30;;;21.80;98.40;;;;;;5025517;28;20509;-80
2023/05/19 12:14:39;;;;;;;1.88;0.20;;;20.80;97.40;;;;;;5026101;28;20437;-80
2023/05/19 12:17:13;;;;;;;1.02;0.10;;;20.40;99.10;;;;;;5025655;28;20039;-80
2023/05/19 12:19:40;;;;;;;1.10;0.20;;;21.00;98.80;;;;;;5024937;28;20028;-79
2023/05/19 12:22:07;;;;;;;2.08;0.28;;;21.20;99.00;;;;;;5022369;28;20099;-79
2023/05/19 12:24:37;;;;;;;0.80;0.20;;;21.10;98.20;;;;;;5026137;28;20025;-80
2023/05/19 12:27:19;;;;;;;2.58;0.20;;;20.50;97.90;;;;;;5024234;28;20044;-80
2023/05/19 12:29:52;;;;;;;2.72;0.30;;;20.40;98.40;;;;;;5019832;28;20475;-80
2023/05/19 12:32:22;;;;;;;1.70;0.20;;;20.70;98.40;;;;;;5018831;28;20037;-80
2023/05/19 12:34:49;;;;;;;2.47;0.30;;;21.20;98.50;;;;;;5020423;28;20029;-81
2023/05/19 12:37:14;;;;;;;2.47;0.20;;;21.50;97.70;;;;;;5022255;28;20555;-80
2023/05/19 12:39:41;;;;;;;1.38;0.20;;;20.90;97.60;;;;;;5017874;28;20037;-78
2023/05/19 12:42:09;;;;;;;1.58;0.20;;;21.10;97.90;;;;;;5018921;28;20030;-81
2023/05/19 12:44:51;;;;;;;1.23;0.20;;;21.30;98.40;;;;;;5014957;28;20124;-80
2023/05/19 12:47:18;;;;;;;1.38;0.15;;;21.30;98.60;;;;;;5016664;28;20022;-80
2023/05/19 12:50:17;;;;;;;1.42;0.20;;;21.30;98.50;;;;;;5015005;28;20427;-80
2023/05/19 12:52:47;;;;;;;2.90;0.30;;;21.00;97.80;;;;;;5002724;28;20057;-80
2023/05/19 12:55:13;;;;;;;1.30;0.20;;;21.20;98.80;;;;;;5018335;28;20033;-80
2023/05/19 12:57:44;;;;;;;2.10;0.22;;;21.20;98.00;;;;;;5015418;28;20496;-80
2023/05/19 13:00:16;;;;;;;2.53;0.30;;;21.00;97.70;;;;;;5024099;28;20041;-80
2023/05/19 13:03:13;;;;;;;2.63;0.40;;;20.40;98.40;;;;;;5018255;28;20120;-80